Terminal Aerodrome Forecast
Issued by NWS

Home | Current Version | Previous Version | Text Only | Print | Product List | Glossary On
Versions: 1 2 3 4 5 6 7 8 9 10 11 12 13 14 15 16 17 18 19 20 21 22 23 24 25 26
000
FTUS46 KMFR 211700 AAA
TAFOTH
TAF AMD
KOTH 211701Z 2117/2212 16009KT P6SM FEW025 BKN090
     FM211800 18012G20KT P6SM SCT035 OVC050
     FM220600 17012G18KT P6SM -RA SCT020 OVC040 WS020/20045KT=

USA.gov is the U.S. government's official web portal to all federal, state and local government web resources and services.